Flight Track Log - Related Links

Times and Time Zones

All times are in EDT time to prevent confusion due to time zone crossing. See the UAL161 flight status page for this flight to view local times or setup timezone preferences in your user account.

Time Position Orientation Groundspeed Altitude Reporting Facility
EDT Latitude Longitude Course Direction KTS MPH feet Rate Location/Type
Sun 08:05:40 PM 40.6523 -74.1888 203° Southwest 192 221 1,200  Level FlightAware ADS-B
Sun 08:05:44 PM 40.6492 -74.1886 177° South 196 226 1,300 857 Climbing FlightAware ADS-B
Sun 08:05:47 PM 40.6465 -74.1888 183° South 198 228 1,300 857 Level FlightAware ADS-B
Sun 08:05:51 PM 40.6426 -74.1896 189° South 201 231 1,400 1,333 Climbing FlightAware ADS-B
Sun 08:05:56 PM 40.6386 -74.1914 199° South 204 235 1,500 1,286 Climbing FlightAware ADS-B
Sun 08:06:05 PM 40.6314 -74.1982 216° Southwest 207 238 1,700 1,412 Climbing FlightAware ADS-B
Sun 08:06:13 PM 40.6269 -74.2070 236° Southwest 212 244 1,900 1,091 Climbing FlightAware ADS-B
Sun 08:06:16 PM 40.6259 -74.2111 252° West 225 259 1,900 1,714 Level FlightAware ADS-B
Sun 08:06:20 PM 40.6251 -74.2164 259° West 228 262 2,100 2,250 Climbing FlightAware ADS-B
Sun 08:06:24 PM 40.6249 -74.2221 267° West 232 267 2,200 1,636 Climbing FlightAware ADS-B
Sun 08:06:31 PM 40.6261 -74.2317 279° West 238 274 2,400 1,091 Climbing FlightAware ADS-B
Sun 08:06:35 PM 40.6274 -74.2370 288° West 243 280 2,400 1,714 Level FlightAware ADS-B
Sun 08:06:45 PM 40.6336 -74.2496 303° West 257 296 2,800 2,400 Climbing FlightAware ADS-B
Sun 08:06:50 PM 40.6379 -74.2547 318° Northwest 261 300 3,000 3,000 Climbing FlightAware ADS-B
Sun 08:06:55 PM 40.6439 -74.2595 329° Northwest 262 302 3,300 2,842 Climbing FlightAware ADS-B
Sun 08:07:09 PM 40.6594 -74.2650 345° North 265 305 3,900 2,800 Climbing FlightAware ADS-B
Sun 08:07:25 PM 40.6791 -74.2595 12° North 265 305 4,700 2,889 Climbing FlightAware ADS-B
Sun 08:07:36 PM 40.6916 -74.2516 26° Northeast 274 315 5,200 2,769 Climbing FlightAware ADS-B
Sun 08:07:38 PM 40.6937 -74.2501 28° Northeast 274 315 5,300 2,750 Climbing FlightAware ADS-B
Sun 08:08:00 PM 40.7174 -74.2276 36° Northeast 278 320 6,300 2,640 Climbing FlightAware ADS-B
Sun 08:08:03 PM 40.7193 -74.2243 53° Northeast 274 315 6,400 3,000 Climbing FlightAware ADS-B
Sun 08:08:12 PM 40.7265 -74.2111 54° Northeast 283 326 6,900 3,143 Climbing FlightAware ADS-B
Sun 08:08:24 PM 40.7347 -74.1934 59° Northeast 284 327 7,500 2,700 Climbing FlightAware ADS-B
Sun 08:08:32 PM 40.7402 -74.1810 60° Northeast 289 333 7,800 2,400 Climbing FlightAware ADS-B
Sun 08:08:34 PM 40.7413 -74.1788 57° Northeast 287 330 7,900 2,118 Climbing FlightAware ADS-B
Sun 08:08:49 PM 40.7512 -74.1555 61° Northeast 296 341 8,400 2,333 Climbing FlightAware ADS-B
Sun 08:08:52 PM 40.7536 -74.1500 60° Northeast 296 341 8,600 2,800 Climbing FlightAware ADS-B
Sun 08:09:04 PM 40.7615 -74.1316 60° Northeast 297 342 9,100 2,471 Climbing FlightAware ADS-B
Sun 08:09:09 PM 40.7651 -74.1234 60° Northeast 299 344 9,300 1,565 Climbing FlightAware ADS-B
Sun 08:09:27 PM 40.7775 -74.0947 60° Northeast 305 351 9,700 1,941 Climbing FlightAware ADS-B
Sun 08:09:43 PM 40.7888 -74.0690 60° Northeast 303 349 10,400 2,250 Climbing FlightAware ADS-B
Sun 08:09:59 PM 40.8005 -74.0424 60° Northeast 313 360 10,900 1,500 Climbing FlightAware ADS-B
Sun 08:10:07 PM 40.8062 -74.0300 59° Northeast 323 372 11,000 800 Climbing FlightAware ADS-B
Sun 08:10:14 PM 40.8123 -74.0178 57° Northeast 328 377 11,100 923 Climbing FlightAware ADS-B
Sun 08:10:20 PM 40.8176 -74.0089 52° Northeast 332 382 11,200 1,500 Climbing FlightAware ADS-B
Sun 08:10:22 PM 40.8201 -74.0052 48° Northeast 334 384 11,300 1,200 Climbing FlightAware ADS-B
Sun 08:10:35 PM 40.8338 -73.9872 45° Northeast 341 392 11,500 1,059 Climbing FlightAware ADS-B
Sun 08:10:39 PM 40.8393 -73.9814 39° Northeast 345 397 11,600 1,000 Climbing FlightAware ADS-B
Sun 08:10:41 PM 40.8414 -73.9794 36° Northeast 346 398 11,600 240 Level FlightAware ADS-B
Sun 08:11:04 PM 40.8712 -73.9486 38° Northeast 355 409 11,700 214 Climbing FlightAware ADS-B
Sun 08:11:09 PM 40.8779 -73.9409 41° Northeast 356 410 11,700  Level FlightAware ADS-B
Sun 08:11:15 PM 40.8844 -73.9318 47° Northeast 355 409 11,700  Level FlightAware ADS-B
Sun 08:11:22 PM 40.8911 -73.9204 52° Northeast 355 409 11,700  Level FlightAware ADS-B
Sun 08:11:26 PM 40.8946 -73.9131 58° Northeast 357 411 11,700  Level FlightAware ADS-B
Sun 08:11:33 PM 40.9002 -73.8984 63° Northeast 358 412 11,700  Level FlightAware ADS-B
Sun 08:12:07 PM 40.9200 -73.8298 69° East 363 418 11,700  Level FlightAware ADS-B
Sun 08:12:13 PM 40.9239 -73.8166 69° East 363 418 11,700  Level FlightAware ADS-B
Sun 08:12:37 PM 40.9450 -73.7718 58° Northeast 355 409 11,700  Level FlightAware ADS-B
Sun 08:12:50 PM 40.9598 -73.7529 44° Northeast 352 405 11,700  Level FlightAware ADS-B
Sun 08:13:24 PM 41.0050 -73.7140 33° Northeast 350 403 11,700 1,154 Level FlightAware ADS-B
Sun 08:14:08 PM 41.0670 -73.6630 32° Northeast 359 413 13,200 2,164 Climbing FlightAware ADS-B
Sun 08:14:25 PM 41.0926 -73.6427 31° Northeast 361 415 13,900 1,531 Climbing FlightAware ADS-B
Sun 08:15:46 PM 41.2000 -73.5560 31° Northeast 371 427 15,700 1,244 Climbing FlightAware ADS-B
Sun 08:16:40 PM 41.2897 -73.4808 32° Northeast 375 432 16,700 800 Climbing FlightAware ADS-B
Sun 08:18:16 PM 41.4240 -73.3710 32° Northeast 374 430 17,700 1,078 Climbing FlightAware ADS-B
Sun 08:18:48 PM 41.4710 -73.3310 33° Northeast 379 436 19,000 2,488 Climbing FlightAware ADS-B
Sun 08:19:38 PM 41.5450 -73.2390 43° Northeast 401 461 21,100 2,234 Climbing FlightAware ADS-B
Sun 08:20:22 PM 41.6030 -73.1610 45° Northeast 403 464 22,500 1,012 Climbing FlightAware ADS-B
Sun 08:21:01 PM 41.6480 -73.1050 43° Northeast 403 464 22,500 940 Level FlightAware ADS-B
Sun 08:21:45 PM 41.7440 -73.1250 351° North 410 472 23,800 975 Climbing FlightAware ADS-B
Sun 08:22:21 PM 41.8020 -73.1320 355° North 410 472 23,800  Level FlightAware ADS-B
Sun 08:23:09 PM 41.8790 -73.1410 355° North 410 472 23,800 1,938 Level FlightAware ADS-B
Sun 08:23:57 PM 42.0000 -73.1730 349° North 431 496 26,900 2,784 Climbing FlightAware ADS-B
Sun 08:24:46 PM 42.1100 -73.1910 353° North 448 516 28,300 1,071 Climbing FlightAware ADS-B
Sun 08:25:21 PM 42.1730 -73.2020 353° North 448 516 28,400 85 Climbing FlightAware ADS-B
Sun 08:25:57 PM 42.2350 -73.2140 352° North 448 516 28,400 1,775 Level FlightAware ADS-B
Sun 08:26:32 PM 42.3140 -73.1220 41° Northeast 439 505 30,500 1,816 Climbing FlightAware ADS-B
Sun 08:27:13 PM 42.3700 -73.0570 41° Northeast 441 507 30,700 1,188 Climbing FlightAware ADS-B
Sun 08:28:08 PM 42.4660 -72.9560 38° Northeast 439 505 32,400 1,636 Climbing FlightAware ADS-B
Sun 08:28:52 PM 42.5360 -72.8840 37° Northeast 436 502 33,400 1,271 Climbing FlightAware ADS-B
Sun 08:29:33 PM 42.6050 -72.8140 37° Northeast 435 501 34,200 1,143 Climbing FlightAware ADS-B
Sun 08:30:16 PM 42.6720 -72.7440 38° Northeast 434 499 35,000 623 Climbing FlightAware ADS-B
Sun 08:30:50 PM 42.7280 -72.6860 37° Northeast 436 502 35,000  Level FlightAware ADS-B
Sun 08:31:30 PM 42.7900 -72.6210 38° Northeast 436 502 35,000  Level FlightAware ADS-B
Sun 08:32:15 PM 42.8620 -72.5470 37° Northeast 434 499 35,000  Level FlightAware ADS-B
Sun 08:32:50 PM 42.9180 -72.4870 38° Northeast 431 496 35,000  Level FlightAware ADS-B
Sun 08:33:30 PM 42.9800 -72.4220 37° Northeast 429 494 35,000  Level FlightAware ADS-B
Sun 08:34:14 PM 43.0500 -72.3480 38° Northeast 427 491 35,000  Level FlightAware ADS-B
Sun 08:34:54 PM 43.1130 -72.2810 38° Northeast 426 490 35,000  Level FlightAware ADS-B
Sun 08:35:38 PM 43.1810 -72.2090 38° Northeast 426 490 35,000  Level FlightAware ADS-B
Sun 08:36:18 PM 43.2440 -72.1420 38° Northeast 427 491 35,000  Level FlightAware ADS-B
Sun 08:37:02 PM 43.3130 -72.0680 38° Northeast 428 493 35,000  Level FlightAware ADS-B
Sun 08:37:34 PM 43.3630 -72.0150 38° Northeast 429 494 35,000  Level FlightAware ADS-B
Sun 08:38:19 PM 43.4320 -71.9410 38° Northeast 430 495 35,000  Level FlightAware ADS-B
Sun 08:38:58 PM 43.4950 -71.8730 38° Northeast 432 497 35,000  Level FlightAware ADS-B
Sun 08:39:34 PM 43.5510 -71.8120 38° Northeast 433 498 35,000  Level FlightAware ADS-B
Sun 08:40:16 PM 43.6160 -71.7420 38° Northeast 434 499 35,000  Level FlightAware ADS-B
Sun 08:41:00 PM 43.6870 -71.6640 38° Northeast 437 503 35,000  Level FlightAware ADS-B
Sun 08:41:40 PM 43.7490 -71.5960 38° Northeast 437 503 35,000  Level FlightAware ADS-B
Sun 08:42:21 PM 43.8140 -71.5250 38° Northeast 437 503 35,000  Level FlightAware ADS-B
Sun 08:43:06 PM 43.8870 -71.4450 38° Northeast 438 504 35,000  Level FlightAware ADS-B
Sun 08:43:46 PM 43.9500 -71.3760 38° Northeast 438 504 35,000  Level FlightAware ADS-B
Sun 08:44:31 PM 44.0200 -71.2990 38° Northeast 439 505 35,000  Level FlightAware ADS-B
Sun 08:45:12 PM 44.0850 -71.2260 39° Northeast 439 505 35,000  Level FlightAware ADS-B
Sun 08:45:52 PM 44.1490 -71.1550 39° Northeast 438 504 35,000  Level FlightAware ADS-B
Sun 08:46:34 PM 44.2160 -71.0810 38° Northeast 438 504 35,000  Level FlightAware ADS-B
Sun 08:47:18 PM 44.2850 -71.0040 39° Northeast 437 503 35,000  Level FlightAware ADS-B
Sun 08:47:57 PM 44.3450 -70.9360 39° Northeast 436 502 35,000  Level FlightAware ADS-B
Sun 08:48:37 PM 44.4080 -70.8660 38° Northeast 435 501 35,000  Level FlightAware ADS-B
Sun 08:49:22 PM 44.4780 -70.7860 39° Northeast 435 501 35,000  Level FlightAware ADS-B
Sun 08:50:07 PM 44.5430 -70.7130 39° Northeast 435 501 35,000  Level FlightAware ADS-B
Sun 08:50:46 PM 44.6110 -70.6360 39° Northeast 434 499 35,000  Level FlightAware ADS-B
Sun 08:51:26 PM 44.6740 -70.5650 39° Northeast 434 499 35,000  Level FlightAware ADS-B
Sun 08:52:09 PM 44.7340 -70.4960 39° Northeast 435 501 35,000  Level FlightAware ADS-B
Sun 08:52:46 PM 44.7880 -70.4340 39° Northeast 435 501 35,000 141 Level FlightAware ADS-B
Sun 08:53:34 PM 44.8700 -70.3400 39° Northeast 437 503 35,200 527 Climbing FlightAware ADS-B
Sun 08:54:17 PM 44.9330 -70.2680 39° Northeast 437 503 35,800 846 Climbing FlightAware ADS-B
Sun 08:54:52 PM 44.9860 -70.2060 40° Northeast 437 503 36,300 818 Climbing FlightAware ADS-B
Sun 08:55:45 PM 45.0700 -70.1090 39° Northeast 434 499 37,000 452 Climbing FlightAware ADS-B
Sun 08:56:25 PM 45.1370 -70.0320 39° Northeast 431 496 37,000  Level FlightAware ADS-B
Sun 08:57:12 PM 45.2100 -69.9470 39° Northeast 430 495 37,000  Level FlightAware ADS-B
Sun 08:57:53 PM 45.2700 -69.8760 40° Northeast 430 495 37,000  Level FlightAware ADS-B
Sun 08:58:33 PM 45.3320 -69.8040 39° Northeast 431 496 37,000  Level FlightAware ADS-B
Sun 08:59:18 PM 45.4030 -69.7200 40° Northeast 431 496 37,000  Level FlightAware ADS-B
Sun 08:59:58 PM 45.4610 -69.6510 40° Northeast 431 496 37,000  Level FlightAware ADS-B
Sun 09:00:33 PM 45.5150 -69.5880 39° Northeast 431 496 37,000  Level FlightAware ADS-B
Sun 09:01:13 PM 45.5800 -69.5110 40° Northeast 432 497 37,000  Level FlightAware ADS-B
Sun 09:02:00 PM 45.6510 -69.4270 40° Northeast 433 498 37,000  Level FlightAware ADS-B
Sun 09:02:41 PM 45.7110 -69.3550 40° Northeast 433 498 37,000  Level FlightAware ADS-B
Sun 09:03:21 PM 45.7740 -69.2810 39° Northeast 433 498 37,000  Level FlightAware ADS-B
Sun 09:04:01 PM 45.8370 -69.2050 40° Northeast 434 499 37,000  Level FlightAware ADS-B
Sun 09:04:41 PM 45.8990 -69.1300 40° Northeast 434 499 37,000  Level FlightAware ADS-B
Sun 09:05:41 PM 45.9930 -69.0170 40° Northeast 435 501 37,000  Level FlightAware ADS-B
Sun 09:06:21 PM 46.0550 -68.9420 40° Northeast 435 501 37,000  Level FlightAware ADS-B
Sun 09:07:06 PM 46.1180 -68.8670 40° Northeast 435 501 37,000  Level FlightAware ADS-B
Sun 09:07:51 PM 46.1920 -68.7770 40° Northeast 435 501 37,000  Level FlightAware ADS-B
Sun 09:08:42 PM 46.2700 -68.6810 40° Northeast 436 502 37,000  Level FlightAware ADS-B
Sun 09:09:20 PM 46.3200 -68.6200 40° Northeast 436 502 37,000  Level FlightAware ADS-B
Sun 09:09:56 PM 46.3680 -68.5630 39° Northeast 436 502 37,000  Level FlightAware ADS-B
Sun 09:10:44 PM 46.4310 -68.4860 40° Northeast 436 502 37,000  Level FlightAware ADS-B
Sun 09:11:34 PM 46.2700 -68.6810 220° Southwest 37,000  Level FlightAware ADS-B
Sun 09:14:21 PM 46.7850 -68.0450 40° Northeast 436 502 37,000  Level FlightAware ADS-B
Sun 09:15:08 PM 46.8640 -67.9470 40° Northeast 436 502 37,000  Level FlightAware ADS-B
Sun 09:15:50 PM 46.9220 -67.8740 41° Northeast 436 502 37,000  Level FlightAware ADS-B
Sun 09:16:33 PM 46.9930 -67.7850 41° Northeast 436 502 37,000  Level FlightAware ADS-B
Sun 09:17:13 PM 47.0500 -67.7130 41° Northeast 437 503 37,000  Level FlightAware ADS-B
Sun 09:17:58 PM 47.1230 -67.6210 41° Northeast 438 504 37,000  Level FlightAware ADS-B
Sun 09:18:33 PM 47.1740 -67.5550 41° Northeast 439 505 37,000  Level FlightAware ADS-B
Sun 09:19:13 PM 47.2370 -67.4750 41° Northeast 440 506 37,000  Level FlightAware ADS-B
Sun 09:19:58 PM 47.3060 -67.3870 41° Northeast 440 506 37,000  Level FlightAware ADS-B
Sun 09:20:53 PM 47.3810 -67.2910 41° Northeast 440 506 37,000  Level FlightAware ADS-B
Sun 09:21:29 PM 47.4280 -67.2310 41° Northeast 440 506 37,000  Level FlightAware ADS-B
Sun 09:22:17 PM 47.4910 -67.1500 41° Northeast 440 506 37,000  Level FlightAware ADS-B
Sun 09:22:53 PM 47.5380 -67.0890 41° Northeast 440 506 37,000  Level FlightAware ADS-B
Sun 09:23:41 PM 47.6010 -67.0090 41° Northeast 440 506 37,000  Level FlightAware ADS-B
Sun 09:24:29 PM 47.6630 -66.9280 41° Northeast 440 506 37,000  Level FlightAware ADS-B
Sun 09:25:05 PM 47.7100 -66.8670 41° Northeast 440 506 37,000  Level FlightAware ADS-B
Sun 09:25:41 PM 47.7570 -66.8060 41° Northeast 440 506 37,000  Level FlightAware ADS-B
Sun 09:26:29 PM 47.8200 -66.7250 41° Northeast 440 506 37,000  Level FlightAware ADS-B
Sun 09:27:05 PM 47.8670 -66.6640 41° Northeast 440 506 37,000  Level FlightAware ADS-B
Sun 09:27:53 PM 47.9300 -66.5830 41° Northeast 440 506 37,000  Level FlightAware ADS-B
Sun 09:28:30 PM 47.9780 -66.5200 41° Northeast 440 506 37,000  Level FlightAware ADS-B
Sun 09:29:18 PM 48.0410 -66.4390 41° Northeast 440 506 37,000  Level FlightAware ADS-B
Sun 09:29:54 PM 48.0880 -66.3780 41° Northeast 440 506 37,000  Level FlightAware ADS-B
Sun 09:30:24 PM 48.2000 -66.0167 41° Northeast 450 518 37,000  Level Gander Center
Sun 09:31:05 PM 48.2833 -65.9333 34° Northeast 450 518 37,000  Level Moncton Center
Sun 09:32:05 PM 48.3500 -65.8000 53° Northeast 450 518 37,000  Level Moncton Center
Sun 09:33:05 PM 48.4500 -65.6667 41° Northeast 450 518 37,000  Level Moncton Center
Sun 09:34:05 PM 48.5333 -65.5333 47° Northeast 440 506 37,000  Level Moncton Center
Sun 09:35:05 PM 48.6167 -65.3833 50° Northeast 450 518 37,000  Level Moncton Center
Sun 09:36:05 PM 48.7000 -65.2667 43° Northeast 450 518 37,000  Level Moncton Center
Sun 09:37:05 PM 48.7833 -65.1167 50° Northeast 450 518 37,000  Level Moncton Center
Sun 09:38:05 PM 48.8667 -64.9833 46° Northeast 450 518 37,000  Level Moncton Center
Sun 09:39:05 PM 48.9500 -64.8333 50° Northeast 450 518 37,000  Level Moncton Center
Sun 09:40:05 PM 49.0333 -64.7000 46° Northeast 450 518 37,000  Level Moncton Center
Sun 09:41:05 PM 49.1333 -64.5500 44° Northeast 450 518 37,000  Level Moncton Center
Sun 09:42:05 PM 49.2167 -64.4167 46° Northeast 450 518 37,000  Level Moncton Center
Sun 09:43:05 PM 49.3000 -64.2667 50° Northeast 450 518 37,000  Level Moncton Center
Sun 09:44:05 PM 49.3833 -64.1333 46° Northeast 450 518 37,000  Level Moncton Center
Sun 09:45:05 PM 49.4667 -63.9833 49° Northeast 460 529 37,000  Level Moncton Center
Sun 09:46:05 PM 49.5500 -63.8500 46° Northeast 450 518 37,000  Level Moncton Center
Sun 09:47:05 PM 49.6333 -63.7000 49° Northeast 450 518 37,000  Level Moncton Center
Sun 09:48:05 PM 49.7167 -63.5667 46° Northeast 440 506 37,000  Level Moncton Center
Sun 09:49:05 PM 49.8000 -63.4167 49° Northeast 450 518 37,000  Level Moncton Center
Sun 09:50:05 PM 49.8833 -63.2500 52° Northeast 450 518 37,000  Level Moncton Center
Sun 09:51:05 PM 49.9667 -63.1167 46° Northeast 450 518 37,000  Level Moncton Center
Sun 09:52:05 PM 50.0500 -62.9667 49° Northeast 440 506 37,000  Level Moncton Center
Sun 09:53:05 PM 50.1333 -62.8333 46° Northeast 450 518 37,000  Level Moncton Center
Sun 09:54:05 PM 50.2167 -62.6667 52° Northeast 450 518 37,000  Level Moncton Center
Sun 09:55:05 PM 50.3000 -62.5333 46° Northeast 450 518 37,000  Level Moncton Center
Sun 09:56:05 PM 50.3833 -62.4000 46° Northeast 440 506 37,000  Level Moncton Center
Sun 09:57:05 PM 50.4667 -62.2333 52° Northeast 450 518 37,000  Level Moncton Center
Sun 09:58:05 PM 50.5333 -62.0833 55° Northeast 450 518 37,000  Level Moncton Center
Sun 09:59:05 PM 50.6167 -61.9500 45° Northeast 450 518 37,000  Level Moncton Center
Sun 10:00:05 PM 50.7000 -61.7833 52° Northeast 440 506 37,000  Level Moncton Center
Sun 10:01:05 PM 50.7667 -61.6500 52° Northeast 450 518 37,000  Level Moncton Center
Sun 10:02:05 PM 50.8500 -61.4833 52° Northeast 450 518 37,000  Level Moncton Center
Sun 10:03:05 PM 50.9167 -61.3167 58° Northeast 450 518 37,000  Level Moncton Center
Sun 10:04:05 PM 51.0167 -61.1500 46° Northeast 450 518 37,000  Level Moncton Center
Sun 10:05:05 PM 51.0833 -61.0167 51° Northeast 450 518 37,000  Level Moncton Center
Sun 10:06:05 PM 51.1667 -60.8667 48° Northeast 450 518 37,000  Level Moncton Center
Sun 10:07:05 PM 51.2667 -60.7000 46° Northeast 450 518 37,000  Level Moncton Center
Sun 10:08:05 PM 51.3167 -60.5333 64° Northeast 460 529 37,000  Level Moncton Center
Sun 10:09:05 PM 51.4167 -60.3667 46° Northeast 460 529 37,000  Level Moncton Center
Sun 10:10:05 PM 51.5000 -60.2333 45° Northeast 460 529 37,000  Level Moncton Center
Sun 10:11:05 PM 51.5667 -60.0667 57° Northeast 460 529 37,000  Level Moncton Center
Sun 10:12:05 PM 51.6500 -59.9000 51° Northeast 460 529 37,000  Level Moncton Center
Sun 10:13:05 PM 51.7333 -59.7167 54° Northeast 470 541 37,000  Level Moncton Center
Sun 10:14:05 PM 51.8000 -59.5833 51° Northeast 460 529 37,000  Level Moncton Center
Sun 10:15:05 PM 51.8833 -59.4000 54° Northeast 470 541 37,000  Level Moncton Center
Sun 10:16:05 PM 51.9667 -59.2333 51° Northeast 470 541 37,000  Level Moncton Center
Sun 10:17:05 PM 52.0500 -59.0667 51° Northeast 470 541 37,000  Level Moncton Center
Sun 10:18:05 PM 52.1333 -58.8833 53° Northeast 460 529 37,000  Level Moncton Center
Sun 10:19:05 PM 52.2000 -58.7500 51° Northeast 460 529 37,000  Level Moncton Center
Sun 10:20:05 PM 52.2833 -58.5667 53° Northeast 460 529 37,000  Level Moncton Center
Sun 10:21:05 PM 52.3500 -58.4000 57° Northeast 460 529 37,000  Level Moncton Center
Sun 10:22:05 PM 52.4500 -58.2167 48° Northeast 460 529 37,000  Level Moncton Center
Sun 10:23:05 PM 52.5000 -58.0667 61° Northeast 460 529 37,000  Level Moncton Center
Sun 10:24:05 PM 52.6000 -57.9000 45° Northeast 460 529 37,000  Level Moncton Center
Sun 10:25:05 PM 52.6667 -57.7167 59° Northeast 460 529 37,000  Level Moncton Center
Sun 10:26:05 PM 52.7500 -57.5667 47° Northeast 460 529 37,000  Level Moncton Center
Sun 10:27:05 PM 52.8167 -57.3833 59° Northeast 470 541 37,000 -450 Level Moncton Center
Sun 10:28:05 PM 52.9000 -57.2167 50° Northeast 470 541 36,100 -500 Descending Moncton Center
Sun 10:29:05 PM 52.9833 -57.0333 53° Northeast 470 541 36,000 -50 Descending Moncton Center
Sun 10:30:05 PM 53.0500 -56.8500 59° Northeast 470 541 36,000  Level Moncton Center
Sun 10:31:05 PM 53.1333 -56.6667 53° Northeast 480 552 36,000  Level Moncton Center
Sun 10:32:05 PM 53.2000 -56.4833 59° Northeast 480 552 36,000  Level Moncton Center
Sun 10:33:05 PM 53.2833 -56.3000 53° Northeast 480 552 36,000  Level Moncton Center
Sun 10:34:05 PM 53.3667 -56.1167 53° Northeast 480 552 36,000  Level Moncton Center
Sun 10:35:05 PM 53.4333 -55.9333 59° Northeast 470 541 36,000  Level Moncton Center
Sun 10:36:05 PM 53.5167 -55.7500 53° Northeast 480 552 36,000  Level Moncton Center
Sun 10:37:05 PM 53.6000 -55.5667 53° Northeast 480 552 36,000  Level Moncton Center
Sun 10:38:05 PM 53.6667 -55.3833 58° Northeast 480 552 36,000  Level Moncton Center
Sun 10:39:05 PM 53.7333 -55.2333 53° Northeast 480 552 36,000  Level Moncton Center
Sun 10:40:05 PM 53.8167 -55.0333 55° Northeast 480 552 36,000  Level Moncton Center
Sun 10:41:05 PM 53.8667 -54.8333 67° East 480 552 36,000  Level Moncton Center
Sun 10:42:05 PM 53.9167 -54.5833 71° East 500 575 36,000  Level Moncton Center
Sun 10:43:05 PM 53.9667 -54.4000 65° Northeast 490 564 36,000  Level Moncton Center
Sun 10:44:05 PM 54.0333 -54.1667 64° Northeast 500 575 36,000  Level Moncton Center
Sun 10:45:24 PM 54.1000 -53.9000 67° East 490 564 36,000  Level Gander Center
Sun 10:46:24 PM 54.1500 -53.6833 68° East 500 575 36,000  Level Gander Center
Sun 10:47:24 PM 54.1833 -53.5000 73° East 500 575 36,000  Level Gander Center
Sun 10:48:24 PM 54.2500 -53.2333 67° East 500 575 36,000  Level Gander Center
Sun 10:49:24 PM 54.3000 -53.0167 68° East 500 575 36,000  Level Gander Center
Sun 10:50:24 PM 54.3500 -52.7833 70° East 500 575 36,000  Level Gander Center
Sun 10:51:24 PM 54.4000 -52.5667 68° East 500 575 36,000  Level Gander Center
Sun 10:52:24 PM 54.4333 -52.3333 76° East 500 575 36,000  Level Gander Center
Sun 10:53:24 PM 54.5167 -52.1167 56° Northeast 500 575 36,000  Level Gander Center
Sun 10:54:24 PM 54.5500 -51.9333 73° East 500 575 36,000  Level Gander Center
Sun 10:55:24 PM 54.6000 -51.7167 68° East 500 575 36,000  Level Gander Center
Sun 10:56:24 PM 54.6500 -51.4500 72° East 500 575 36,000  Level Gander Center
Sun 10:57:24 PM 54.7000 -51.2500 67° East 500 575 36,000  Level Gander Center
Sun 10:58:24 PM 54.7167 -51.0167 83° East 510 587 36,000  Level Gander Center
Sun 10:59:24 PM 54.7833 -50.8000 62° Northeast 510 587 36,000  Level Gander Center
Sun 11:00:24 PM 54.8333 -50.5833 68° East 510 587 36,000  Level Gander Center
Sun 11:01:24 PM 54.8833 -50.3333 71° East 510 587 36,000  Level Gander Center
Sun 11:02:24 PM 54.9333 -50.1167 68° East 510 587 36,000  Level Gander Center
Sun 11:04:00 PM 55.0458 -49.8166 66° East  Level FlightAware Approximate
Sun 11:11:00 PM 55.3932 -48.3734 67° East  Level FlightAware Approximate
Sun 11:12:00 PM 55.4415 -48.1652 68° East  Level FlightAware Approximate
Sun 11:13:00 PM 55.4893 -47.9565 68° East  Level FlightAware Approximate
Sun 11:14:00 PM 55.5369 -47.7472 68° East  Level FlightAware Approximate
Sun 11:15:00 PM 55.5840 -47.5375 68° East  Level FlightAware Approximate
Sun 11:16:00 PM 55.6308 -47.3273 68° East  Level FlightAware Approximate
Sun 11:17:00 PM 55.6773 -47.1165 69° East  Level FlightAware Approximate
Sun 11:18:00 PM 55.7233 -46.9053 69° East  Level FlightAware Approximate
Sun 11:19:00 PM 55.7691 -46.6936 69° East  Level FlightAware Approximate
Sun 11:20:00 PM 55.8144 -46.4813 69° East  Level FlightAware Approximate
Sun 11:21:00 PM 55.8594 -46.2686 69° East  Level FlightAware Approximate
Sun 11:22:00 PM 55.9040 -46.0554 69° East  Level FlightAware Approximate
Sun 11:23:00 PM 55.9483 -45.8417 70° East  Level FlightAware Approximate
Sun 11:24:00 PM 55.9927 -45.6279 70° East  Level FlightAware Approximate
Sun 11:25:00 PM 56.0368 -45.4136 70° East  Level FlightAware Approximate
Sun 11:26:00 PM 56.0805 -45.1988 70° East  Level FlightAware Approximate
Sun 11:27:00 PM 56.1239 -44.9836 70° East  Level FlightAware Approximate
Sun 11:28:00 PM 56.1669 -44.7678 70° East  Level FlightAware Approximate
Sun 11:29:00 PM 56.2095 -44.5516 70° East  Level FlightAware Approximate
Sun 11:30:00 PM 56.2517 -44.3349 71° East  Level FlightAware Approximate
Sun 11:31:00 PM 56.2935 -44.1177 71° East  Level FlightAware Approximate
Sun 11:32:00 PM 56.3350 -43.9000 71° East  Level FlightAware Approximate
Sun 11:33:00 PM 56.3761 -43.6819 71° East  Level FlightAware Approximate
Sun 11:34:00 PM 56.4168 -43.4633 71° East  Level FlightAware Approximate
Sun 11:35:00 PM 56.4571 -43.2442 72° East  Level FlightAware Approximate
Sun 11:36:00 PM 56.4970 -43.0247 72° East  Level FlightAware Approximate
Sun 11:37:00 PM 56.5365 -42.8047 72° East  Level FlightAware Approximate
Sun 11:38:00 PM 56.5756 -42.5842 72° East  Level FlightAware Approximate
Sun 11:39:00 PM 56.6144 -42.3633 72° East  Level FlightAware Approximate
Sun 11:40:00 PM 56.6528 -42.1420 72° East  Level FlightAware Approximate
Sun 11:41:00 PM 56.6907 -41.9202 73° East  Level FlightAware Approximate
Sun 11:42:00 PM 56.7283 -41.6979 73° East  Level FlightAware Approximate
Sun 11:43:00 PM 56.7655 -41.4753 73° East  Level FlightAware Approximate
Sun 11:44:00 PM 56.8023 -41.2521 73° East  Level FlightAware Approximate
Sun 11:45:00 PM 56.8386 -41.0285 73° East  Level FlightAware Approximate
Sun 11:46:00 PM 56.8746 -40.8046 74° East  Level FlightAware Approximate
Sun 11:47:00 PM 56.9102 -40.5801 74° East  Level FlightAware Approximate
Sun 11:48:00 PM 56.9454 -40.3553 74° East  Level FlightAware Approximate
Sun 11:49:00 PM 56.9801 -40.1300 74° East  Level FlightAware Approximate
Sun 11:50:00 PM 57.0137 -39.9039 75° East  Level FlightAware Approximate
Sun 11:51:00 PM 57.0458 -39.6769 75° East  Level FlightAware Approximate
Sun 11:52:00 PM 57.0775 -39.4495 76° East  Level FlightAware Approximate
Sun 11:53:00 PM 57.1088 -39.2217 76° East  Level FlightAware Approximate
Sun 11:54:00 PM 57.1396 -38.9935 76° East  Level FlightAware Approximate
Sun 11:55:00 PM 57.1701 -38.7650 76° East  Level FlightAware Approximate
Sun 11:56:00 PM 57.2001 -38.5360 76° East  Level FlightAware Approximate
Sun 11:57:00 PM 57.2297 -38.3067 76° East  Level FlightAware Approximate
Sun 11:58:00 PM 57.2589 -38.0771 77° East  Level FlightAware Approximate
Sun 11:59:00 PM 57.2876 -37.8470 77° East  Level FlightAware Approximate
Mon 12:00:00 AM 57.3160 -37.6167 77° East  Level FlightAware Approximate
Mon 12:01:00 AM 57.3439 -37.3859 77° East  Level FlightAware Approximate
Mon 12:02:00 AM 57.3714 -37.1548 77° East  Level FlightAware Approximate
Mon 12:03:00 AM 57.3985 -36.9234 78° East  Level FlightAware Approximate
Mon 12:04:00 AM 57.4252 -36.6916 78° East  Level FlightAware Approximate
Mon 12:05:00 AM 57.4514 -36.4595 78° East  Level FlightAware Approximate
Mon 12:06:00 AM 57.4772 -36.2271 78° East  Level FlightAware Approximate
Mon 12:07:00 AM 57.5025 -35.9944 78° East  Level FlightAware Approximate
Mon 12:08:00 AM 57.5275 -35.7613 79° East  Level FlightAware Approximate
Mon 12:09:00 AM 57.5520 -35.5279 79° East  Level FlightAware Approximate
Mon 12:10:00 AM 57.5761 -35.2942 79° East  Level FlightAware Approximate
Mon 12:11:00 AM 57.5997 -35.0601 79° East  Level FlightAware Approximate
Mon 12:12:00 AM 57.6230 -34.8258 79° East  Level FlightAware Approximate
Mon 12:13:00 AM 57.6457 -34.5912 80° East  Level FlightAware Approximate
Mon 12:14:00 AM 57.6681 -34.3563 80° East  Level FlightAware Approximate
Mon 12:15:00 AM 57.6900 -34.1211 80° East  Level FlightAware Approximate
Mon 12:16:00 AM 57.7115 -33.8856 80° East  Level FlightAware Approximate
Mon 12:17:00 AM 57.7325 -33.6499 80° East  Level FlightAware Approximate
Mon 12:18:00 AM 57.7531 -33.4139 81° East  Level FlightAware Approximate
Mon 12:19:00 AM 57.7733 -33.1776 81° East  Level FlightAware Approximate
Mon 12:20:00 AM 57.7930 -32.9410 81° East  Level FlightAware Approximate
Mon 12:21:00 AM 57.8123 -32.7042 81° East  Level FlightAware Approximate
Mon 12:22:00 AM 57.8311 -32.4672 81° East  Level FlightAware Approximate
Mon 12:23:00 AM 57.8495 -32.2299 82° East  Level FlightAware Approximate
Mon 12:24:00 AM 57.8675 -31.9923 82° East  Level FlightAware Approximate
Mon 12:25:00 AM 57.8850 -31.7546 82° East  Level FlightAware Approximate
Mon 12:26:00 AM 57.9020 -31.5166 82° East  Level FlightAware Approximate
Mon 12:27:00 AM 57.9187 -31.2783 82° East  Level FlightAware Approximate
Mon 12:28:00 AM 57.9348 -31.0399 83° East  Level FlightAware Approximate
Mon 12:29:00 AM 57.9506 -30.8012 83° East  Level FlightAware Approximate
Mon 12:30:00 AM 57.9658 -30.5624 83° East  Level FlightAware Approximate
Mon 12:31:00 AM 57.9807 -30.3233 83° East  Level FlightAware Approximate
Mon 12:32:00 AM 57.9951 -30.0840 83° East  Level FlightAware Approximate
Mon 12:33:00 AM 58.0057 -29.8440 86° East  Level FlightAware Approximate
Mon 12:34:00 AM 58.0142 -29.6036 86° East  Level FlightAware Approximate
Mon 12:35:00 AM 58.0222 -29.3631 86° East  Level FlightAware Approximate
Mon 12:36:00 AM 58.0298 -29.1225 86° East  Level FlightAware Approximate
Mon 12:37:00 AM 58.0369 -28.8818 87° East  Level FlightAware Approximate
Mon 12:38:00 AM 58.0436 -28.6409 87° East  Level FlightAware Approximate
Mon 12:39:00 AM 58.0498 -28.4000 87° East  Level FlightAware Approximate
Mon 12:40:00 AM 58.0555 -28.1591 87° East  Level FlightAware Approximate
Mon 12:41:00 AM 58.0608 -27.9180 88° East  Level FlightAware Approximate
Mon 12:42:00 AM 58.0657 -27.6769 88° East  Level FlightAware Approximate
Mon 12:43:00 AM 58.0701 -27.4357 88° East  Level FlightAware Approximate
Mon 12:44:00 AM 58.0740 -27.1944 88° East  Level FlightAware Approximate
Mon 12:45:00 AM 58.0775 -26.9531 88° East  Level FlightAware Approximate
Mon 12:46:00 AM 58.0805 -26.7118 89° East  Level FlightAware Approximate
Mon 12:47:00 AM 58.0830 -26.4704 89° East  Level FlightAware Approximate
Mon 12:48:00 AM 58.0851 -26.2290 89° East  Level FlightAware Approximate
Mon 12:49:00 AM 58.0868 -25.9876 89° East  Level FlightAware Approximate
Mon 12:50:00 AM 58.0880 -25.7461 89° East  Level FlightAware Approximate
Mon 12:51:00 AM 58.0887 -25.5047 90° East  Level FlightAware Approximate
Mon 12:52:00 AM 58.0890 -25.2632 90° East  Level FlightAware Approximate
Mon 12:53:00 AM 58.0888 -25.0217 90° East  Level FlightAware Approximate
Mon 12:54:00 AM 58.0882 -24.7803 90° East  Level FlightAware Approximate
Mon 12:55:00 AM 58.0871 -24.5388 90° East  Level FlightAware Approximate
Mon 12:56:00 AM 58.0855 -24.2973 91° East  Level FlightAware Approximate
Mon 12:57:00 AM 58.0835 -24.0559 91° East  Level FlightAware Approximate
Mon 12:58:00 AM 58.0811 -23.8146 91° East  Level FlightAware Approximate
Mon 12:59:00 AM 58.0782 -23.5732 91° East  Level FlightAware Approximate
Mon 01:00:00 AM 58.0748 -23.3319 91° East  Level FlightAware Approximate
Mon 01:01:00 AM 58.0709 -23.0906 92° East  Level FlightAware Approximate
Mon 01:02:00 AM 58.0667 -22.8494 91° East  Level FlightAware Approximate
Mon 01:03:00 AM 58.0635 -22.6082 91° East  Level FlightAware Approximate
Mon 01:04:00 AM 58.0599 -22.3670 92° East  Level FlightAware Approximate
Mon 01:05:00 AM 58.0558 -22.1259 92° East  Level FlightAware Approximate
Mon 01:06:00 AM 58.0512 -21.8848 92° East  Level FlightAware Approximate
Mon 01:07:00 AM 58.0462 -21.6438 92° East  Level FlightAware Approximate
Mon 01:08:00 AM 58.0408 -21.4028 92° East  Level FlightAware Approximate
Mon 01:09:00 AM 58.0349 -21.1620 93° East  Level FlightAware Approximate
Mon 01:10:00 AM 58.0285 -20.9212 93° East  Level FlightAware Approximate
Mon 01:11:00 AM 58.0217 -20.6805 93° East  Level FlightAware Approximate
Mon 01:12:00 AM 58.0145 -20.4399 93° East  Level FlightAware Approximate
Mon 01:13:00 AM 58.0067 -20.1994 93° East  Level FlightAware Approximate
Mon 01:14:00 AM 58.0008 -19.9589 88° East  Level FlightAware Approximate
Mon 01:15:00 AM 58.0052 -19.7182 88° East  Level FlightAware Approximate
Mon 01:16:00 AM 58.0092 -19.4774 88° East  Level FlightAware Approximate
Mon 01:17:00 AM 58.0127 -19.2365 88° East  Level FlightAware Approximate
Mon 01:18:00 AM 58.0157 -18.9956 89° East  Level FlightAware Approximate
Mon 01:19:00 AM 58.0183 -18.7547 89° East  Level FlightAware Approximate
Mon 01:20:00 AM 58.0205 -18.5137 89° East  Level FlightAware Approximate
Mon 01:21:00 AM 58.0222 -18.2727 89° East  Level FlightAware Approximate
Mon 01:22:00 AM 58.0234 -18.0317 89° East  Level FlightAware Approximate
Mon 01:23:00 AM 58.0242 -17.7906 90° East  Level FlightAware Approximate
Mon 01:24:00 AM 58.0245 -17.5496 90° East  Level FlightAware Approximate
Mon 01:25:00 AM 58.0244 -17.3085 90° East  Level FlightAware Approximate
Mon 01:26:00 AM 58.0238 -17.0675 90° East  Level FlightAware Approximate
Mon 01:27:00 AM 58.0227 -16.8265 90° East  Level FlightAware Approximate
Mon 01:28:00 AM 58.0212 -16.5855 91° East  Level FlightAware Approximate
Mon 01:29:00 AM 58.0193 -16.3445 91° East  Level FlightAware Approximate
Mon 01:30:00 AM 58.0169 -16.1036 91° East  Level FlightAware Approximate
Mon 01:31:00 AM 58.0140 -15.8626 91° East  Level FlightAware Approximate
Mon 01:32:00 AM 58.0107 -15.6218 91° East  Level FlightAware Approximate
Mon 01:32:30 AM 57.5360 -12.4990 92° East 486 559 36,000  Level FlightAware ADS-B
Mon 01:33:00 AM 58.0069 -15.3809 92° East  Level FlightAware Approximate
Mon 01:33:26 AM 57.4940 -12.2860 110° East 485 558 36,000  Level FlightAware ADS-B
Mon 01:34:06 AM 57.4610 -12.1220 110° East 484 557 36,000  Level FlightAware ADS-B
Mon 01:34:38 AM 57.4400 -12.0130 110° East 484 557 36,000  Level FlightAware ADS-B
Mon 01:35:27 AM 57.3970 -11.8040 111° Southeast 484 557 36,000  Level FlightAware ADS-B
Mon 01:36:07 AM 57.3650 -11.6500 111° Southeast 484 557 36,000  Level FlightAware ADS-B
Mon 01:36:52 AM 57.3290 -11.4750 111° Southeast 483 556 36,000  Level FlightAware ADS-B
Mon 01:37:33 AM 57.2960 -11.3150 111° Southeast 485 558 36,000  Level FlightAware ADS-B
Mon 01:38:13 AM 57.2640 -11.1620 111° Southeast 485 558 36,000  Level FlightAware ADS-B
Mon 01:38:53 AM 57.2320 -11.0090 111° Southeast 485 558 36,000  Level FlightAware ADS-B
Mon 01:39:28 AM 57.2020 -10.8700 112° Southeast 485 558 36,000  Level FlightAware ADS-B
Mon 01:40:13 AM 57.1660 -10.7000 111° Southeast 486 559 36,000  Level FlightAware ADS-B
Mon 01:40:52 AM 57.1370 -10.5660 112° Southeast 485 558 36,000  Level FlightAware ADS-B
Mon 01:41:28 AM 57.1030 -10.4130 112° Southeast 486 559 36,000  Level FlightAware ADS-B
Mon 01:42:12 AM 57.0690 -10.2570 112° Southeast 486 559 36,000  Level FlightAware ADS-B
Mon 01:43:09 AM 57.0220 -10.0390 112° Southeast 484 557 36,000  Level FlightAware ADS-B
Mon 01:44:00 AM 56.9870 -9.8420 108° East 487 560 36,000  Level FlightAware ADS-B
Mon 01:44:44 AM 56.9540 -9.6510 108° East 491 565 36,000  Level FlightAware ADS-B
Mon 01:45:25 AM 56.9260 -9.4910 108° East 491 565 36,000  Level FlightAware ADS-B
Mon 01:46:10 AM 56.8950 -9.3110 107° East 491 565 36,000  Level FlightAware ADS-B
Mon 01:46:41 AM 56.8740 -9.1910 108° East 488 562 36,000  Level FlightAware ADS-B
Mon 01:47:27 AM 56.8420 -9.0120 108° East 487 560 36,000  Level FlightAware ADS-B
Mon 01:48:02 AM 56.7967 -8.8456 108° East 462 532 36,000  Level FlightAware UK
Mon 01:48:06 AM 56.8140 -8.8560 108° East 487 560 36,000  Level FlightAware ADS-B
Mon 01:48:42 AM 56.7890 -8.7180 108° East 486 559 36,000  Level FlightAware ADS-B
Mon 01:49:27 AM 56.7560 -8.5390 109° East 485 558 36,000  Level FlightAware ADS-B
Mon 01:50:02 AM 56.7110 -8.3779 109° East 460 529 36,000  Level FlightAware UK
Mon 01:50:08 AM 56.7270 -8.3820 109° East 484 557 36,000 -118 Level FlightAware ADS-B
Mon 01:50:53 AM 56.6940 -8.2050 109° East 483 556 35,900 -714 Descending FlightAware ADS-B
Mon 01:51:32 AM 56.6460 -8.0318 109° East 462 532 35,000 -1,200 Descending FlightAware UK
Mon 01:51:33 AM 56.6650 -8.0530 109° East 490 564 35,100 -1,143 Climbing FlightAware ADS-B
Mon 01:52:14 AM 56.6350 -7.8960 109° East 493 567 34,200 -1,902 Descending FlightAware ADS-B
Mon 01:52:55 AM 56.6040 -7.7360 109° East 496 571 32,500 -2,923 Descending FlightAware ADS-B
Mon 01:53:32 AM 56.5558 -7.5642 109° East 472 543 30,400 -3,273 Descending FlightAware UK
Mon 01:53:39 AM 56.5700 -7.5590 109° East 501 577 30,100 -2,375 Descending FlightAware ADS-B
Mon 01:54:20 AM 56.5400 -7.4040 109° East 495 570 28,500 -2,325 Descending FlightAware ADS-B
Mon 01:54:59 AM 56.5090 -7.2480 109° East 486 559 27,000 -2,512 Descending FlightAware ADS-B
Mon 01:55:03 AM 56.4870 -7.2134 109° East 452 520 26,700 -2,471 Descending FlightAware UK
Mon 01:55:33 AM 56.4644 -7.0993 109° East 448 516 25,600 -2,195 Descending FlightAware UK
Mon 01:55:44 AM 56.4760 -7.0780 109° East 476 548 25,200 -2,235 Descending FlightAware ADS-B
Mon 01:56:24 AM 56.4450 -6.9280 110° East 469 540 23,700 -2,354 Descending FlightAware ADS-B
Mon 01:57:03 AM 56.3980 -6.7682 110° East 428 493 22,100 -2,267 Descending FlightAware UK
Mon 01:57:09 AM 56.4120 -6.7650 110° East 455 524 22,000 -2,000 Descending FlightAware ADS-B
Mon 01:57:45 AM 56.3870 -6.6410 110° East 448 516 20,700 -2,289 Descending FlightAware ADS-B
Mon 01:58:25 AM 56.3570 -6.4940 110° East 440 506 19,100 -2,175 Descending FlightAware ADS-B
Mon 01:59:05 AM 56.3300 -6.3650 110° East 432 497 17,800 -2,182 Descending FlightAware ADS-B
Mon 01:59:09 AM 56.3085 -6.3307 110° East 402 463 17,500 -2,471 Descending FlightAware UK
Mon 01:59:39 AM 56.2876 -6.2308 110° East 396 456 16,400 -1,857 Descending FlightAware UK
Mon 01:59:51 AM 56.3000 -6.2210 110° East 423 487 16,200 -1,915 Descending FlightAware ADS-B
Mon 02:00:26 AM 56.2750 -6.1040 111° Southeast 416 479 14,900 -2,308 Descending FlightAware ADS-B
Mon 02:01:09 AM 56.2269 -5.9417 111° Southeast 378 435 13,200 -2,267 Descending FlightAware UK
Mon 02:01:11 AM 56.2430 -5.9530 111° Southeast 402 463 13,200 -1,915 Level FlightAware ADS-B
Mon 02:01:56 AM 56.2150 -5.8220 111° Southeast 390 449 11,700 -2,025 Descending FlightAware ADS-B
Mon 02:02:31 AM 56.1910 -5.7100 111° Southeast 381 438 10,500 -1,169 Descending FlightAware ADS-B
Mon 02:03:13 AM 56.1660 -5.5920 111° Southeast 339 390 10,200 -448 Descending FlightAware ADS-B
Mon 02:03:38 AM 56.1520 -5.5280 111° Southeast 321 369 10,000 -764 Descending FlightAware ADS-B
Mon 02:04:08 AM 56.1360 -5.4560 112° Southeast 310 357 9,500 -1,200 Descending FlightAware ADS-B
Mon 02:04:33 AM 56.1220 -5.3950 112° Southeast 310 357 8,900 -1,200 Descending FlightAware ADS-B
Mon 02:04:58 AM 56.1150 -5.3330 101° East 308 354 8,500 -873 Descending FlightAware ADS-B
Mon 02:05:28 AM 56.1120 -5.2580 94° East 304 350 8,100 -964 Descending FlightAware ADS-B
Mon 02:05:54 AM 56.1100 -5.1940 93° East 303 349 7,600 -1,440 Descending FlightAware ADS-B
Mon 02:06:18 AM 56.1080 -5.1290 93° East 302 348 6,900 -1,469 Descending FlightAware ADS-B
Mon 02:06:43 AM 56.1060 -5.0680 93° East 300 345 6,400 -1,309 Descending FlightAware ADS-B
Mon 02:07:13 AM 56.1040 -4.9930 93° East 296 341 5,700 -1,333 Descending FlightAware ADS-B
Mon 02:07:28 AM 56.1040 -4.9590 90° East 295 339 5,400 -1,171 Descending FlightAware ADS-B
Mon 02:07:54 AM 56.1020 -4.8970 93° East 289 333 4,900 -840 Descending FlightAware ADS-B
Mon 02:08:18 AM 56.1010 -4.8380 92° East 287 330 4,700 -245 Descending FlightAware ADS-B
Mon 02:08:43 AM 56.1000 -4.7830 92° East 291 335 4,700  Level FlightAware ADS-B
Mon 02:09:08 AM 56.0980 -4.7260 94° East 293 337 4,700  Level FlightAware ADS-B
Mon 02:09:40 AM 56.0970 -4.6440 91° East 285 328 4,700  Level FlightAware ADS-B
Mon 02:10:10 AM 56.0950 -4.5780 93° East 274 315 4,700  Level FlightAware ADS-B
Mon 02:10:35 AM 56.0940 -4.5190 92° East 257 296 4,700  Level FlightAware ADS-B
Mon 02:11:00 AM 56.0930 -4.4660 92° East 258 297 4,700  Level FlightAware ADS-B
Mon 02:11:39 AM 56.0783 -4.3645 92° East 230 265 4,700 128 Level FlightAware UK
Mon 02:11:47 AM 56.0910 -4.3730 92° East 246 283 4,800  Climbing FlightAware ADS-B
Mon 02:12:12 AM 56.0900 -4.3210 92° East 245 282 4,700 -150 Descending FlightAware ADS-B
Mon 02:12:27 AM 56.0880 -4.2890 96° East 242 278 4,700 -235 Level FlightAware ADS-B
Mon 02:13:03 AM 56.0638 -4.2029 96° East 200 230 4,500 -429 Descending FlightAware UK
Mon 02:13:09 AM 56.0740 -4.2140 96° East 214 246 4,400 -1,385 Descending FlightAware ADS-B
Mon 02:13:29 AM 56.0660 -4.1810 113° Southeast 211 243 3,900 -1,500 Descending FlightAware ADS-B
Mon 02:13:45 AM 56.0540 -4.1680 149° Southeast 183 211 3,500 -933 Descending FlightAware ADS-B
Mon 02:14:14 AM 56.0310 -4.1790 195° South 175 201 3,200 -409 Descending FlightAware ADS-B
Mon 02:14:29 AM 56.0220 -4.1920 219° Southwest 177 204 3,200 -343 Level FlightAware ADS-B
Mon 02:14:49 AM 56.0120 -4.2080 222° Southwest 167 192 3,000 -600 Descending FlightAware ADS-B
Mon 02:15:19 AM 55.9950 -4.2430 222° Southwest 171 197 2,700 -563 Descending FlightAware ADS-B
Mon 02:15:21 AM 55.9815 -4.2268 222° Southwest 180 207 2,700 -720 Level FlightAware UK
Mon 02:15:44 AM 55.9810 -4.2700 227° Southwest 172 198 2,400 -727 Descending FlightAware ADS-B
Mon 02:15:54 AM 55.9750 -4.2810 226° Southwest 169 194 2,300 -900 Descending FlightAware ADS-B
Mon 02:16:24 AM 55.9600 -4.3100 227° Southwest 168 193 1,800 -960 Descending FlightAware ADS-B
Mon 02:17:09 AM 55.9248 -4.3347 227° Southwest 174 200 1,100 -913 Descending FlightAware UK
Mon 02:17:10 AM 55.9350 -4.3560 227° Southwest 164 189 1,100 -692 Level FlightAware ADS-B
Mon 02:17:35 AM 55.9230 -4.3790 227° Southwest 166 191 800 -840 Descending FlightAware ADS-B
Mon 02:18:00 AM 55.9100 -4.4040 227° Southwest 149 171 400 -429 Descending FlightAware ADS-B
Mon 02:18:31 AM 55.8990 -4.4250 227° Southwest 142 163 400  Level FlightAware ADS-B

Login

Don't have an account? Register now (free) for customized features, flight alerts, and more!